createdAt,value
2024-01-11T00:01:11.396Z,5.43
2024-01-11T00:03:39.340Z,5.85
2024-01-11T00:06:07.536Z,5.10
2024-01-11T00:08:35.632Z,5.28
2024-01-11T00:11:03.665Z,4.82
2024-01-11T00:13:31.845Z,5.57
2024-01-11T00:15:59.645Z,5.50
2024-01-11T00:18:27.728Z,5.63
2024-01-11T00:20:55.883Z,6.38
2024-01-11T00:23:24.534Z,5.55
2024-01-11T00:25:52.423Z,5.45
2024-01-11T00:28:20.396Z,5.55
2024-01-11T00:30:48.279Z,5.25
2024-01-11T00:33:16.370Z,5.05
2024-01-11T00:35:44.458Z,5.45
2024-01-11T00:38:12.422Z,5.70
2024-01-11T00:40:40.446Z,5.60
2024-01-11T00:43:08.438Z,5.88
2024-01-11T00:45:36.555Z,5.30
2024-01-11T00:48:05.344Z,5.05
2024-01-11T00:50:33.264Z,5.65
2024-01-11T00:53:02.462Z,5.88
2024-01-11T00:55:31.229Z,5.47
2024-01-11T00:57:59.169Z,5.25
2024-01-11T01:00:27.170Z,5.53
2024-01-11T01:02:55.313Z,5.00
2024-01-11T01:05:23.363Z,5.07
2024-01-11T01:07:51.316Z,5.47
2024-01-11T01:10:19.195Z,5.22
2024-01-11T01:12:47.193Z,5.60
2024-01-11T01:15:15.872Z,5.63
2024-01-11T01:17:43.987Z,5.55
2024-01-11T01:20:12.572Z,5.50
2024-01-11T01:22:43.644Z,5.80
2024-01-11T01:25:11.612Z,5.60
2024-01-11T01:27:39.681Z,5.65
2024-01-11T01:30:08.496Z,5.32
2024-01-11T01:32:36.724Z,5.88
2024-01-11T01:35:05.126Z,5.53
2024-01-11T01:37:33.869Z,5.38
2024-01-11T01:40:01.897Z,5.68
2024-01-11T01:42:29.948Z,5.90
2024-01-11T01:44:57.783Z,5.20
2024-01-11T01:47:26.870Z,6.07
2024-01-11T01:49:55.787Z,5.68
2024-01-11T01:52:24.135Z,5.72
2024-01-11T01:54:52.272Z,5.60
2024-01-11T01:57:21.527Z,5.93
2024-01-11T01:59:53.695Z,5.10
2024-01-11T02:02:22.665Z,5.72
2024-01-11T02:04:50.948Z,5.78
2024-01-11T02:07:20.013Z,5.28
2024-01-11T02:09:48.244Z,5.43
2024-01-11T02:12:16.634Z,6.22
2024-01-11T02:14:45.388Z,5.95
2024-01-11T02:17:13.609Z,6.22
2024-01-11T02:19:42.208Z,6.15
2024-01-11T02:22:17.891Z,5.35
2024-01-11T02:24:45.765Z,6.20
2024-01-11T02:27:13.836Z,5.28
2024-01-11T02:29:41.931Z,5.90
2024-01-11T02:32:10.259Z,5.47
2024-01-11T02:34:39.523Z,5.32
2024-01-11T02:37:07.964Z,5.78
2024-01-11T02:39:36.559Z,5.25
2024-01-11T02:42:04.924Z,5.72
2024-01-11T02:44:32.917Z,6.25
2024-01-11T02:47:01.239Z,5.38
2024-01-11T02:49:29.282Z,5.22
2024-01-11T02:51:57.099Z,5.88
2024-01-11T02:54:25.100Z,5.43
2024-01-11T02:56:53.118Z,5.80
2024-01-11T02:59:21.188Z,5.22
2024-01-11T03:01:49.070Z,5.47
2024-01-11T03:04:18.102Z,5.53
2024-01-11T03:06:46.041Z,6.10
2024-01-11T03:09:13.970Z,5.45
2024-01-11T03:11:42.112Z,5.90
2024-01-11T03:14:10.014Z,6.07
2024-01-11T03:16:38.820Z,6.32
2024-01-11T03:19:07.726Z,6.13
2024-01-11T03:21:35.672Z,5.70
2024-01-11T03:24:03.741Z,6.40
2024-01-11T03:26:31.646Z,6.22
2024-01-11T03:28:59.575Z,6.25
2024-01-11T03:31:27.610Z,6.60
2024-01-11T03:33:55.818Z,5.88
2024-01-11T03:36:26.782Z,6.00
2024-01-11T03:38:54.704Z,7.13
2024-01-11T03:41:22.734Z,6.13
2024-01-11T03:43:51.866Z,6.30
2024-01-11T03:46:20.216Z,6.78
2024-01-11T03:48:48.322Z,6.93
2024-01-11T03:51:16.333Z,6.70
2024-01-11T03:53:44.316Z,7.05
2024-01-11T03:56:14.380Z,7.03
2024-01-11T03:58:43.068Z,6.70
2024-01-11T04:01:11.671Z,6.65
2024-01-11T04:03:40.143Z,7.10
2024-01-11T04:06:08.361Z,6.50
2024-01-11T04:08:37.583Z,6.65
2024-01-11T04:11:06.001Z,6.80
2024-01-11T04:13:33.930Z,7.13
2024-01-11T04:16:06.948Z,6.82
2024-01-11T04:18:35.223Z,7.47
2024-01-11T04:21:03.384Z,7.05
2024-01-11T04:23:32.320Z,7.55
2024-01-11T04:26:00.483Z,7.20
2024-01-11T04:28:28.409Z,7.07
2024-01-11T04:30:56.341Z,7.25
2024-01-11T04:33:24.725Z,7.28
2024-01-11T04:35:52.675Z,7.35
2024-01-11T04:38:20.833Z,6.90
2024-01-11T04:40:48.798Z,7.57
2024-01-11T04:43:16.701Z,7.18
2024-01-11T04:45:44.809Z,7.43
2024-01-11T04:48:13.013Z,7.53
2024-01-11T04:50:41.130Z,7.47
2024-01-11T04:53:09.438Z,7.55
2024-01-11T04:55:37.440Z,7.22
2024-01-11T04:58:05.430Z,7.03
2024-01-11T05:00:33.385Z,7.32
2024-01-11T05:03:01.430Z,7.28
2024-01-11T05:05:29.554Z,7.60
2024-01-11T05:07:58.351Z,7.78
2024-01-11T05:10:26.466Z,7.95
2024-01-11T05:12:54.410Z,7.15
2024-01-11T05:15:22.908Z,6.93
2024-01-11T05:17:51.479Z,8.20
2024-01-11T05:20:19.731Z,7.15
2024-01-11T05:22:47.779Z,7.78
2024-01-11T05:25:15.839Z,7.40
2024-01-11T05:27:43.752Z,7.40
2024-01-11T05:30:12.124Z,6.85
2024-01-11T05:32:40.391Z,7.18
2024-01-11T05:35:09.430Z,6.80
2024-01-11T05:37:38.110Z,9.63
2024-01-11T05:40:06.702Z,11.07
2024-01-11T05:42:34.727Z,10.68
2024-01-11T05:45:02.674Z,20.63
2024-01-11T05:47:31.004Z,24.17
2024-01-11T05:49:59.062Z,25.92
2024-01-11T05:52:27.045Z,25.50
2024-01-11T05:54:55.367Z,23.70
2024-01-11T05:57:23.298Z,22.30
2024-01-11T05:59:51.401Z,21.38
2024-01-11T06:02:20.105Z,20.38
2024-01-11T06:04:49.390Z,18.95
2024-01-11T06:07:17.737Z,17.50
2024-01-11T06:09:45.877Z,18.67
2024-01-11T06:12:15.203Z,16.58
2024-01-11T06:14:43.198Z,17.20
2024-01-11T06:17:12.481Z,17.20
2024-01-11T06:19:40.803Z,15.15
2024-01-11T06:22:08.877Z,14.45
2024-01-11T06:24:37.011Z,14.75
2024-01-11T06:27:05.200Z,14.10
2024-01-11T06:29:33.398Z,14.18
2024-01-11T06:32:01.567Z,14.25
2024-01-11T06:34:30.204Z,14.07
2024-01-11T06:36:59.150Z,13.75
2024-01-11T06:39:27.269Z,13.45
2024-01-11T06:41:55.379Z,12.50
2024-01-11T06:44:23.410Z,12.32
2024-01-11T06:46:52.122Z,13.50
2024-01-11T06:49:20.202Z,13.10
2024-01-11T06:51:48.468Z,12.85
2024-01-11T06:54:16.801Z,11.80
2024-01-11T06:56:45.176Z,11.57
2024-01-11T06:59:13.321Z,11.25
2024-01-11T07:01:41.532Z,11.05
2024-01-11T07:04:09.824Z,10.98
2024-01-11T07:06:38.243Z,10.98
2024-01-11T07:09:07.270Z,11.82
2024-01-11T07:11:35.238Z,11.68
2024-01-11T07:14:05.695Z,10.60
2024-01-11T07:16:35.413Z,10.13
2024-01-11T07:19:03.774Z,10.70
2024-01-11T07:21:32.896Z,15.65
2024-01-11T07:24:01.218Z,27.75
2024-01-11T07:26:29.985Z,27.08
2024-01-11T07:28:58.285Z,30.33
2024-01-11T07:31:26.575Z,31.00
2024-01-11T07:33:54.590Z,33.53
2024-01-11T07:36:22.767Z,32.67
2024-01-11T07:38:50.908Z,33.42
2024-01-11T07:41:19.204Z,33.03
2024-01-11T07:43:53.646Z,29.83
2024-01-11T07:46:32.734Z,31.73
2024-01-11T07:49:07.577Z,30.15
2024-01-11T07:51:38.418Z,29.95
2024-01-11T07:54:06.727Z,27.10
2024-01-11T07:56:34.746Z,29.08
2024-01-11T07:59:02.831Z,26.10
2024-01-11T08:01:30.841Z,25.58
2024-01-11T08:03:59.279Z,24.55
2024-01-11T08:06:27.463Z,22.75
2024-01-11T08:08:55.571Z,24.70
2024-01-11T08:11:23.585Z,22.70
2024-01-11T08:13:51.551Z,22.42
2024-01-11T08:16:19.877Z,22.73
2024-01-11T08:18:49.890Z,19.45
2024-01-11T08:21:18.108Z,21.88
2024-01-11T08:23:47.149Z,20.48
2024-01-11T08:26:16.438Z,19.85
2024-01-11T08:28:44.565Z,20.52
2024-01-11T08:31:13.908Z,18.52
2024-01-11T08:33:42.007Z,18.73
2024-01-11T08:36:10.265Z,18.02
2024-01-11T08:38:38.694Z,18.75
2024-01-11T08:41:07.620Z,17.48
2024-01-11T08:43:35.675Z,16.80
2024-01-11T08:46:03.911Z,16.92
2024-01-11T08:48:32.329Z,15.88
2024-01-11T08:51:00.835Z,16.40
2024-01-11T08:53:29.074Z,15.80
2024-01-11T08:55:57.049Z,15.43
2024-01-11T08:58:25.726Z,14.73
2024-01-11T09:00:53.839Z,15.68
2024-01-11T09:03:21.759Z,15.43
2024-01-11T09:05:49.892Z,14.30
2024-01-11T09:08:18.126Z,14.15
2024-01-11T09:10:46.327Z,13.75
2024-01-11T09:13:15.050Z,13.45
2024-01-11T09:15:43.666Z,13.65
2024-01-11T09:18:13.247Z,13.15
2024-01-11T09:20:41.589Z,11.93
2024-01-11T09:23:09.678Z,12.55
2024-01-11T09:25:37.739Z,12.38
2024-01-11T09:28:06.039Z,12.00
2024-01-11T09:30:34.694Z,11.73
2024-01-11T09:33:02.967Z,11.82
2024-01-11T09:35:31.024Z,11.70
2024-01-11T09:37:59.105Z,12.27
2024-01-11T09:40:27.234Z,11.63
2024-01-11T09:42:55.419Z,11.13
2024-01-11T09:45:23.534Z,11.20
2024-01-11T09:47:53.819Z,11.20
2024-01-11T09:50:23.717Z,10.63
2024-01-11T09:52:52.297Z,9.90
2024-01-11T09:55:20.483Z,10.48
2024-01-11T09:57:50.059Z,10.68
2024-01-11T10:00:20.238Z,10.40
2024-01-11T10:02:48.574Z,10.18
2024-01-11T10:05:20.403Z,10.23
2024-01-11T10:07:48.688Z,10.02
2024-01-11T10:10:17.144Z,9.25
2024-01-11T10:12:46.323Z,10.13
2024-01-11T10:15:14.970Z,9.80
2024-01-11T10:17:47.509Z,9.00
2024-01-11T10:20:16.873Z,9.68
2024-01-11T10:22:46.705Z,9.20
2024-01-11T10:25:16.755Z,9.02
2024-01-11T10:27:46.963Z,8.82
2024-01-11T10:30:21.592Z,8.98
2024-01-11T10:32:50.819Z,9.15
2024-01-11T10:35:19.983Z,8.70
2024-01-11T10:37:52.229Z,8.98
2024-01-11T10:40:25.429Z,8.48
2024-01-11T10:42:54.300Z,9.38
2024-01-11T10:45:22.712Z,8.88
2024-01-11T10:48:05.986Z,8.10
2024-01-11T10:50:41.456Z,8.25
2024-01-11T10:53:48.954Z,8.95
2024-01-11T10:56:18.163Z,8.60
2024-01-11T10:58:47.985Z,8.38
2024-01-11T11:01:17.748Z,8.20
2024-01-11T11:03:47.500Z,8.77
2024-01-11T11:06:16.676Z,8.25
2024-01-11T11:08:46.125Z,8.25
2024-01-11T11:11:15.280Z,7.90
2024-01-11T11:13:44.294Z,8.70
2024-01-11T11:16:12.397Z,8.63
2024-01-11T11:18:41.491Z,8.02
2024-01-11T11:21:15.106Z,8.13
2024-01-11T11:23:44.083Z,8.20
2024-01-11T11:26:17.981Z,8.02
2024-01-11T11:28:49.452Z,7.70
2024-01-11T11:31:37.556Z,7.85
2024-01-11T11:34:07.450Z,8.48
2024-01-11T11:36:36.516Z,7.32
2024-01-11T11:39:04.759Z,8.23
2024-01-11T11:41:35.895Z,8.60
2024-01-11T11:44:05.401Z,7.97
2024-01-11T11:46:34.496Z,8.55
2024-01-11T11:49:02.578Z,8.38
2024-01-11T11:51:30.864Z,8.70
2024-01-11T11:53:59.167Z,7.72
2024-01-11T11:56:28.228Z,8.73
2024-01-11T11:58:56.922Z,8.38
2024-01-11T12:01:25.643Z,8.38
2024-01-11T12:03:54.405Z,8.48
2024-01-11T12:06:26.141Z,8.32
2024-01-11T12:08:57.704Z,8.43
2024-01-11T12:11:27.075Z,8.18
2024-01-11T12:13:57.476Z,8.45
2024-01-11T12:16:25.780Z,8.10
2024-01-11T12:18:54.928Z,7.97
2024-01-11T12:21:23.381Z,8.02
2024-01-11T12:23:51.431Z,7.80
2024-01-11T12:26:24.060Z,8.35
2024-01-11T12:28:53.366Z,7.38
2024-01-11T12:31:23.538Z,7.55
2024-01-11T12:33:52.290Z,8.07
2024-01-11T12:36:20.916Z,7.93
2024-01-11T12:38:53.334Z,8.55
2024-01-11T12:41:24.449Z,7.57
2024-01-11T12:43:54.084Z,8.13
2024-01-11T12:46:22.535Z,7.72
2024-01-11T12:48:51.600Z,8.73
2024-01-11T12:51:21.846Z,8.68
2024-01-11T12:53:52.732Z,7.65
2024-01-11T12:56:23.277Z,8.20
2024-01-11T12:58:51.952Z,8.50
2024-01-11T13:01:21.005Z,9.07
2024-01-11T13:03:50.064Z,8.43
2024-01-11T13:06:20.528Z,8.43
2024-01-11T13:08:49.270Z,7.85
2024-01-11T13:11:18.574Z,7.75
2024-01-11T13:13:48.988Z,7.75
2024-01-11T13:16:20.448Z,8.13
2024-01-11T13:18:49.149Z,7.80
2024-01-11T13:21:18.195Z,8.02
2024-01-11T13:23:46.676Z,8.25
2024-01-11T13:26:15.064Z,8.00
2024-01-11T13:28:43.323Z,7.57
2024-01-11T13:31:11.618Z,8.13
2024-01-11T13:33:40.700Z,7.55
2024-01-11T13:36:10.562Z,7.97
2024-01-11T13:38:39.229Z,7.60
2024-01-11T13:41:09.574Z,8.18
2024-01-11T13:43:38.101Z,8.90
2024-01-11T13:46:06.467Z,8.23
2024-01-11T13:48:34.934Z,8.40
2024-01-11T13:51:06.686Z,8.15
2024-01-11T13:53:34.873Z,8.30
2024-01-11T13:56:03.281Z,8.43
2024-01-11T13:58:31.732Z,8.93
2024-01-11T14:01:00.603Z,7.70
2024-01-11T14:03:28.965Z,8.10
2024-01-11T14:05:57.532Z,7.88
2024-01-11T14:08:26.622Z,7.70
2024-01-11T14:10:55.971Z,8.30
2024-01-11T14:13:23.994Z,8.48
2024-01-11T14:15:52.458Z,8.68
2024-01-11T14:18:22.392Z,7.55
2024-01-11T14:20:50.907Z,7.68
2024-01-11T14:23:19.563Z,8.02
2024-01-11T14:25:48.675Z,7.75
2024-01-11T14:28:16.572Z,8.35
2024-01-11T14:30:45.780Z,8.07
2024-01-11T14:33:13.838Z,8.20
2024-01-11T14:35:41.896Z,7.75
2024-01-11T14:38:09.939Z,8.10
2024-01-11T14:40:38.029Z,8.18
2024-01-11T14:43:06.046Z,8.18
2024-01-11T14:45:34.065Z,8.57
2024-01-11T14:48:02.579Z,8.20
2024-01-11T14:50:30.656Z,7.80
2024-01-11T14:52:58.916Z,8.40
2024-01-11T14:55:26.876Z,8.10
2024-01-11T14:57:56.487Z,7.63
2024-01-11T15:00:25.374Z,8.00
2024-01-11T15:02:53.404Z,7.63
2024-01-11T15:05:21.464Z,7.25
2024-01-11T15:07:50.341Z,7.57
2024-01-11T15:10:18.983Z,7.57
2024-01-11T15:12:47.589Z,8.07
2024-01-11T15:15:15.627Z,7.30
2024-01-11T15:17:43.928Z,8.05
2024-01-11T15:20:12.493Z,8.02
2024-01-11T15:22:40.399Z,7.20
2024-01-11T15:25:09.276Z,7.78
2024-01-11T15:27:37.330Z,7.45
2024-01-11T15:30:06.154Z,7.50
2024-01-11T15:32:34.489Z,6.78
2024-01-11T15:35:04.959Z,6.82
2024-01-11T15:37:34.437Z,7.45
2024-01-11T15:40:05.138Z,7.20
2024-01-11T15:42:33.241Z,7.13
2024-01-11T15:45:03.371Z,7.57
2024-01-11T15:47:32.644Z,7.38
2024-01-11T15:50:00.778Z,8.00
2024-01-11T15:52:29.027Z,7.15
2024-01-11T15:54:57.581Z,7.28
2024-01-11T15:57:25.546Z,6.72
2024-01-11T15:59:53.571Z,7.47
2024-01-11T16:02:21.761Z,6.78
2024-01-11T16:04:49.925Z,8.20
2024-01-11T16:07:17.940Z,7.95
2024-01-11T16:09:46.258Z,7.28
2024-01-11T16:12:14.372Z,6.97
2024-01-11T16:14:45.669Z,7.45
2024-01-11T16:17:13.749Z,7.07
2024-01-11T16:19:42.596Z,7.60
2024-01-11T16:22:11.210Z,7.40
2024-01-11T16:24:39.294Z,7.20
2024-01-11T16:27:08.364Z,7.75
2024-01-11T16:29:36.518Z,7.00
2024-01-11T16:32:04.719Z,7.47
2024-01-11T16:34:34.175Z,7.10
2024-01-11T16:37:02.348Z,7.05
2024-01-11T16:39:30.541Z,7.25
2024-01-11T16:41:58.818Z,7.25
2024-01-11T16:44:26.829Z,6.90
2024-01-11T16:46:55.024Z,7.43
2024-01-11T16:49:23.729Z,7.20
2024-01-11T16:51:51.920Z,6.78
2024-01-11T16:54:20.326Z,6.97
2024-01-11T16:56:49.090Z,6.85
2024-01-11T16:59:18.847Z,7.35
2024-01-11T17:01:46.938Z,7.35
2024-01-11T17:04:15.945Z,7.20
2024-01-11T17:06:44.182Z,7.00
2024-01-11T17:09:12.170Z,6.85
2024-01-11T17:11:42.164Z,7.03
2024-01-11T17:14:11.221Z,7.10
2024-01-11T17:16:39.288Z,6.57
2024-01-11T17:19:07.496Z,6.47
2024-01-11T17:21:35.648Z,6.63
2024-01-11T17:24:04.287Z,7.10
2024-01-11T17:26:32.902Z,6.47
2024-01-11T17:29:01.058Z,6.82
2024-01-11T17:31:29.246Z,6.88
2024-01-11T17:33:57.956Z,6.70
2024-01-11T17:36:28.286Z,6.30
2024-01-11T17:38:56.477Z,6.40
2024-01-11T17:41:24.554Z,5.82
2024-01-11T17:43:54.114Z,6.55
2024-01-11T17:46:25.645Z,6.90
2024-01-11T17:48:54.704Z,6.63
2024-01-11T17:51:23.114Z,6.90
2024-01-11T17:53:52.943Z,6.88
2024-01-11T17:56:22.044Z,7.10
2024-01-11T17:58:50.471Z,7.07
2024-01-11T18:01:26.541Z,7.00
2024-01-11T18:03:54.796Z,7.20
2024-01-11T18:06:23.178Z,6.50
2024-01-11T18:08:51.213Z,7.25
2024-01-11T18:11:19.339Z,7.63
2024-01-11T18:13:47.471Z,6.22
2024-01-11T18:16:15.473Z,6.82
2024-01-11T18:18:48.098Z,6.85
2024-01-11T18:21:16.363Z,6.68
2024-01-11T18:23:44.725Z,6.82
2024-01-11T18:26:12.746Z,6.97
2024-01-11T18:28:41.134Z,6.10
2024-01-11T18:31:10.187Z,6.43
2024-01-11T18:33:38.270Z,7.97
2024-01-11T18:36:09.526Z,6.38
2024-01-11T18:38:37.535Z,6.82
2024-01-11T18:41:07.035Z,6.78
2024-01-11T18:43:35.340Z,7.32
2024-01-11T18:46:03.469Z,7.10
2024-01-11T18:48:32.600Z,6.70
2024-01-11T18:51:02.348Z,6.90
2024-01-11T18:53:30.575Z,7.07
2024-01-11T18:56:00.632Z,6.72
2024-01-11T18:58:30.654Z,6.75
2024-01-11T19:00:58.727Z,6.85
2024-01-11T19:03:27.004Z,6.70
2024-01-11T19:05:55.219Z,6.75
2024-01-11T19:08:23.848Z,6.65
2024-01-11T19:10:51.760Z,6.70
2024-01-11T19:13:19.862Z,6.63
2024-01-11T19:15:49.968Z,6.22
2024-01-11T19:18:18.077Z,6.32
2024-01-11T19:20:48.975Z,6.53
2024-01-11T19:23:16.920Z,6.07
2024-01-11T19:25:45.951Z,6.53
2024-01-11T19:28:14.253Z,6.47
2024-01-11T19:30:43.842Z,6.30
2024-01-11T19:33:15.541Z,6.47
2024-01-11T19:35:44.049Z,6.68
2024-01-11T19:38:15.032Z,6.47
2024-01-11T19:40:43.177Z,7.15
2024-01-11T19:43:11.218Z,6.93
2024-01-11T19:45:39.279Z,6.38
2024-01-11T19:48:07.798Z,6.38
2024-01-11T19:50:35.735Z,7.05
2024-01-11T19:53:03.882Z,6.43
2024-01-11T19:55:32.054Z,6.47
2024-01-11T19:58:00.087Z,6.22
2024-01-11T20:00:30.097Z,6.90
2024-01-11T20:02:59.035Z,6.45
2024-01-11T20:05:27.282Z,6.57
2024-01-11T20:07:55.454Z,6.95
2024-01-11T20:10:23.543Z,6.88
2024-01-11T20:12:51.506Z,6.35
2024-01-11T20:15:19.538Z,6.70
2024-01-11T20:17:48.352Z,6.07
2024-01-11T20:20:16.611Z,6.32
2024-01-11T20:22:44.612Z,6.30
2024-01-11T20:25:12.583Z,6.50
2024-01-11T20:27:40.625Z,6.25
2024-01-11T20:30:12.094Z,6.22
2024-01-11T20:32:40.853Z,6.22
2024-01-11T20:35:09.363Z,5.93
2024-01-11T20:37:41.411Z,6.05
2024-01-11T20:40:10.530Z,6.03
2024-01-11T20:42:38.783Z,6.65
2024-01-11T20:45:07.786Z,6.63
2024-01-11T20:47:35.967Z,6.60
2024-01-11T20:50:04.148Z,6.75
2024-01-11T20:52:33.676Z,6.78
2024-01-11T20:55:01.824Z,6.90
2024-01-11T20:57:29.885Z,6.75
2024-01-11T20:59:57.769Z,6.72
2024-01-11T21:02:26.189Z,6.75
2024-01-11T21:04:54.286Z,6.63
2024-01-11T21:07:22.185Z,6.22
2024-01-11T21:09:50.198Z,6.80
2024-01-11T21:12:18.221Z,6.20
2024-01-11T21:14:46.830Z,6.63
2024-01-11T21:17:14.858Z,6.38
2024-01-11T21:19:44.612Z,6.20
2024-01-11T21:22:13.715Z,6.70
2024-01-11T21:24:41.708Z,6.60
2024-01-11T21:27:09.657Z,6.20
2024-01-11T21:29:37.717Z,7.15
2024-01-11T21:32:05.888Z,6.75
2024-01-11T21:34:33.847Z,6.25
2024-01-11T21:37:01.850Z,6.72
2024-01-11T21:39:29.793Z,6.38
2024-01-11T21:41:57.779Z,7.07
2024-01-11T21:44:25.718Z,6.82
2024-01-11T21:46:53.791Z,6.70
2024-01-11T21:49:21.930Z,6.63
2024-01-11T21:51:49.831Z,6.07
2024-01-11T21:54:19.550Z,6.63
2024-01-11T21:56:47.800Z,6.78
2024-01-11T21:59:16.058Z,6.68
2024-01-11T22:01:44.489Z,6.28
2024-01-11T22:04:13.539Z,6.47
2024-01-11T22:06:41.867Z,6.65
2024-01-11T22:09:10.133Z,6.57
2024-01-11T22:11:38.180Z,6.80
2024-01-11T22:14:06.185Z,6.47
2024-01-11T22:16:34.270Z,6.53
2024-01-11T22:19:02.410Z,6.28
2024-01-11T22:21:31.060Z,7.03
2024-01-11T22:23:59.293Z,6.50
2024-01-11T22:26:28.506Z,6.93
2024-01-11T22:28:57.341Z,6.55
2024-01-11T22:31:25.279Z,7.68
2024-01-11T22:33:53.496Z,6.63
2024-01-11T22:36:23.453Z,6.68
2024-01-11T22:38:51.434Z,6.45
2024-01-11T22:41:19.521Z,6.80
2024-01-11T22:43:47.482Z,6.75
2024-01-11T22:46:15.571Z,6.75
2024-01-11T22:48:43.671Z,6.88
2024-01-11T22:51:13.900Z,6.50
2024-01-11T22:53:42.028Z,7.43
2024-01-11T22:56:10.076Z,6.80
2024-01-11T22:58:37.972Z,6.70
2024-01-11T23:01:06.056Z,6.60
2024-01-11T23:03:34.228Z,7.00
2024-01-11T23:06:02.700Z,6.28
2024-01-11T23:08:30.884Z,7.35
2024-01-11T23:10:58.940Z,7.20
2024-01-11T23:13:26.997Z,6.63
2024-01-11T23:15:55.158Z,6.60
2024-01-11T23:18:23.315Z,6.70
2024-01-11T23:20:51.592Z,6.70
2024-01-11T23:23:19.444Z,7.07
2024-01-11T23:25:47.568Z,6.88
2024-01-11T23:28:15.405Z,6.57
2024-01-11T23:30:43.577Z,6.22
2024-01-11T23:33:12.710Z,7.07
2024-01-11T23:35:41.011Z,7.05
2024-01-11T23:38:09.108Z,6.07
2024-01-11T23:40:37.242Z,6.32
2024-01-11T23:43:05.262Z,6.90
2024-01-11T23:45:33.419Z,6.65
2024-01-11T23:48:01.653Z,6.80
2024-01-11T23:50:30.726Z,6.75
2024-01-11T23:52:58.655Z,7.05
2024-01-11T23:55:26.997Z,6.95
2024-01-11T23:57:55.981Z,6.40
